createdAt,value
2019-01-12T00:00:14.021Z,30.23
2019-01-12T00:02:41.385Z,34.50
2019-01-12T00:05:11.785Z,33.83
2019-01-12T00:07:40.066Z,34.67
2019-01-12T00:10:08.259Z,31.10
2019-01-12T00:12:35.815Z,34.63
2019-01-12T00:15:05.737Z,36.93
2019-01-12T00:17:33.297Z,33.13
2019-01-12T00:20:00.805Z,36.23
2019-01-12T00:22:28.186Z,35.03
2019-01-12T00:24:55.699Z,34.13
2019-01-12T00:27:23.278Z,33.73
2019-01-12T00:29:50.734Z,36.03
2019-01-12T00:32:18.143Z,34.93
2019-01-12T00:34:45.648Z,34.10
2019-01-12T00:37:13.237Z,35.53
2019-01-12T00:39:40.669Z,32.33
2019-01-12T00:42:08.283Z,30.63
2019-01-12T00:44:35.707Z,36.27
2019-01-12T00:47:03.707Z,31.63
2019-01-12T00:49:31.295Z,34.27
2019-01-12T00:51:58.665Z,33.03
2019-01-12T00:54:27.146Z,29.27
2019-01-12T00:56:54.661Z,31.87
2019-01-12T00:59:22.139Z,34.23
2019-01-12T01:01:49.539Z,34.20
2019-01-12T01:04:17.078Z,33.00
2019-01-12T01:06:44.509Z,33.93
2019-01-12T01:09:12.031Z,30.80
2019-01-12T01:11:39.548Z,37.57
2019-01-12T01:14:06.942Z,33.30
2019-01-12T01:16:35.670Z,35.57
2019-01-12T01:19:03.150Z,34.87
2019-01-12T01:21:30.624Z,28.77
2019-01-12T01:23:57.960Z,35.53
2019-01-12T01:26:25.478Z,31.93
2019-01-12T01:28:53.314Z,28.70
2019-01-12T01:31:20.658Z,30.23
2019-01-12T01:33:48.352Z,30.20
2019-01-12T01:36:15.744Z,29.97
2019-01-12T01:38:44.316Z,31.10
2019-01-12T01:41:11.779Z,30.90
2019-01-12T01:43:39.251Z,31.67
2019-01-12T01:46:07.207Z,31.80
2019-01-12T01:48:34.628Z,31.13
2019-01-12T01:51:01.949Z,30.67
2019-01-12T01:53:29.384Z,30.73
2019-01-12T01:55:57.352Z,30.77
2019-01-12T01:58:26.391Z,34.17
2019-01-12T02:00:53.868Z,29.57
2019-01-12T02:03:21.390Z,32.00
2019-01-12T02:05:53.237Z,29.83
2019-01-12T02:08:20.644Z,28.43
2019-01-12T02:10:48.041Z,33.50
2019-01-12T02:13:15.376Z,32.17
2019-01-12T02:15:43.193Z,30.90
2019-01-12T02:18:10.769Z,27.60
2019-01-12T02:20:38.642Z,34.13
2019-01-12T02:23:06.036Z,28.23
2019-01-12T02:25:33.512Z,28.43
2019-01-12T02:28:03.658Z,27.63
2019-01-12T02:30:30.977Z,30.50
2019-01-12T02:32:58.998Z,31.50
2019-01-12T02:35:26.405Z,27.93
2019-01-12T02:37:53.845Z,33.00
2019-01-12T02:40:21.442Z,31.93
2019-01-12T02:42:48.787Z,33.67
2019-01-12T02:45:17.774Z,33.70
2019-01-12T02:47:45.198Z,31.03
2019-01-12T02:50:12.997Z,29.77
2019-01-12T02:52:40.356Z,32.20
2019-01-12T02:55:09.024Z,34.17
2019-01-12T02:57:36.709Z,36.80
2019-01-12T03:00:08.633Z,34.37
2019-01-12T03:02:36.091Z,37.03
2019-01-12T03:05:03.834Z,36.70
2019-01-12T03:07:31.316Z,35.50
2019-01-12T03:09:58.849Z,38.37
2019-01-12T03:12:26.238Z,40.93
2019-01-12T03:14:53.574Z,36.73
2019-01-12T03:17:21.583Z,35.97
2019-01-12T03:19:48.980Z,37.43
2019-01-12T03:22:16.394Z,40.43
2019-01-12T03:24:43.935Z,40.17
2019-01-12T03:27:11.352Z,41.37
2019-01-12T03:29:38.812Z,41.73
2019-01-12T03:32:06.398Z,43.07
2019-01-12T03:34:33.784Z,41.80
2019-01-12T03:37:01.212Z,42.67
2019-01-12T03:39:28.657Z,48.63
2019-01-12T03:41:56.055Z,44.20
2019-01-12T03:44:23.530Z,41.77
2019-01-12T03:46:50.926Z,44.70
2019-01-12T03:49:18.323Z,40.97
2019-01-12T03:51:45.664Z,45.00
2019-01-12T03:54:13.203Z,41.37
2019-01-12T03:56:40.596Z,43.07
2019-01-12T03:59:08.007Z,41.37
2019-01-12T04:01:35.402Z,42.53
2019-01-12T04:04:02.957Z,48.60
2019-01-12T04:06:30.506Z,45.23
2019-01-12T04:08:58.072Z,42.70
2019-01-12T04:11:25.448Z,44.43
2019-01-12T04:13:52.782Z,46.87
2019-01-12T04:16:20.323Z,48.00
2019-01-12T04:18:47.837Z,42.80
2019-01-12T04:21:15.262Z,44.97
2019-01-12T04:23:42.752Z,44.53
2019-01-12T04:26:10.242Z,45.90
2019-01-12T04:28:38.115Z,45.63
2019-01-12T04:31:05.539Z,45.43
2019-01-12T04:33:33.046Z,48.07
2019-01-12T04:36:00.481Z,44.47
2019-01-12T04:38:28.080Z,47.80
2019-01-12T04:40:55.530Z,45.73
2019-01-12T04:43:22.946Z,44.20
2019-01-12T04:45:50.456Z,49.67
2019-01-12T04:48:19.593Z,46.87
2019-01-12T04:50:47.142Z,50.13
2019-01-12T04:53:14.641Z,52.83
2019-01-12T04:55:42.120Z,53.13
2019-01-12T04:58:09.465Z,51.60
2019-01-12T05:00:36.984Z,53.63
2019-01-12T05:03:04.368Z,58.53
2019-01-12T05:05:31.852Z,62.83
2019-01-12T05:07:59.349Z,58.40
2019-01-12T05:10:27.029Z,64.47
2019-01-12T05:12:54.522Z,68.53
2019-01-12T05:15:22.022Z,66.27
2019-01-12T05:17:49.472Z,61.43
2019-01-12T05:20:17.778Z,57.93
2019-01-12T05:22:45.693Z,60.03
2019-01-12T05:25:13.085Z,60.47
2019-01-12T05:27:40.582Z,61.00
2019-01-12T05:30:09.712Z,57.90
2019-01-12T05:32:37.144Z,59.13
2019-01-12T05:35:04.583Z,61.80
2019-01-12T05:37:36.743Z,55.87
2019-01-12T05:40:05.307Z,53.00
2019-01-12T05:42:32.744Z,57.33
2019-01-12T05:45:00.208Z,58.83
2019-01-12T05:47:27.600Z,51.80
2019-01-12T05:49:54.938Z,57.00
2019-01-12T05:52:22.404Z,64.57
2019-01-12T05:54:49.989Z,53.07
2019-01-12T05:57:17.401Z,48.60
2019-01-12T05:59:44.961Z,50.30
2019-01-12T06:02:12.397Z,46.87
2019-01-12T06:04:39.855Z,38.13
2019-01-12T06:07:07.357Z,40.07
2019-01-12T06:09:34.796Z,32.83
2019-01-12T06:12:02.253Z,35.80
2019-01-12T06:14:31.121Z,33.57
2019-01-12T06:16:58.515Z,35.47
2019-01-12T06:19:25.933Z,33.67
2019-01-12T06:21:55.236Z,34.47
2019-01-12T06:24:22.599Z,34.87
2019-01-12T06:26:49.997Z,44.53
2019-01-12T06:29:17.615Z,41.73
2019-01-12T06:31:45.029Z,38.57
2019-01-12T06:34:12.529Z,46.77
2019-01-12T06:36:40.099Z,47.67
2019-01-12T06:39:08.290Z,55.57
2019-01-12T06:41:35.626Z,50.63
2019-01-12T06:44:03.237Z,42.73
2019-01-12T06:46:30.675Z,46.10
2019-01-12T06:48:58.122Z,50.57
2019-01-12T06:51:25.579Z,53.53
2019-01-12T06:53:53.250Z,57.20
2019-01-12T06:56:20.603Z,55.73
2019-01-12T06:58:49.807Z,60.73
2019-01-12T07:01:17.236Z,63.03
2019-01-12T07:03:44.644Z,62.43
2019-01-12T07:06:12.137Z,62.40
2019-01-12T07:08:39.497Z,55.93
2019-01-12T07:11:07.025Z,67.53
2019-01-12T07:13:36.201Z,70.33
2019-01-12T07:16:03.779Z,63.53
2019-01-12T07:18:33.634Z,59.30
2019-01-12T07:21:03.245Z,63.30
2019-01-12T07:23:30.738Z,62.93
2019-01-12T07:25:58.196Z,62.43
2019-01-12T07:28:25.735Z,73.67
2019-01-12T07:30:53.155Z,61.47
2019-01-12T07:33:20.836Z,66.30
2019-01-12T07:35:48.328Z,62.40
2019-01-12T07:38:15.786Z,67.53
2019-01-12T07:40:43.236Z,75.03
2019-01-12T07:43:11.702Z,71.70
2019-01-12T07:45:39.156Z,85.53
2019-01-12T07:48:06.583Z,79.70
2019-01-12T07:50:34.113Z,76.67
2019-01-12T07:53:01.517Z,78.93
2019-01-12T07:55:29.196Z,76.37
2019-01-12T07:57:56.692Z,82.37
2019-01-12T08:00:24.311Z,84.13
2019-01-12T08:02:51.786Z,87.63
2019-01-12T08:05:19.285Z,86.60
2019-01-12T08:07:46.843Z,92.43
2019-01-12T08:10:15.597Z,96.10
2019-01-12T08:12:43.174Z,102.77
2019-01-12T08:15:13.650Z,102.13
2019-01-12T08:17:41.049Z,89.73
2019-01-12T08:20:09.954Z,92.17
2019-01-12T08:22:37.360Z,94.67
2019-01-12T08:25:10.819Z,88.83
2019-01-12T08:27:39.242Z,87.80
2019-01-12T08:30:14.306Z,99.63
2019-01-12T08:32:44.778Z,95.63
2019-01-12T08:35:12.208Z,108.37
2019-01-12T08:37:44.332Z,103.53
2019-01-12T08:40:11.920Z,98.83
2019-01-12T08:42:39.352Z,102.43
2019-01-12T08:45:08.953Z,91.67
2019-01-12T08:47:36.459Z,88.27
2019-01-12T08:50:05.474Z,90.07
2019-01-12T08:52:32.919Z,91.70
2019-01-12T08:55:00.478Z,91.70
2019-01-12T08:57:29.924Z,95.77
2019-01-12T08:59:57.833Z,86.90
2019-01-12T09:02:25.400Z,85.30
2019-01-12T09:04:54.212Z,89.50
2019-01-12T09:07:21.619Z,90.50
2019-01-12T09:09:49.132Z,99.03
2019-01-12T09:12:16.470Z,125.97
2019-01-12T09:14:43.968Z,136.00
2019-01-12T09:17:11.644Z,126.70
2019-01-12T09:19:40.895Z,124.63
2019-01-12T09:22:09.810Z,133.07
2019-01-12T09:24:38.886Z,129.33
2019-01-12T09:27:06.349Z,103.67
2019-01-12T09:29:34.781Z,106.20
2019-01-12T09:32:02.278Z,106.50
2019-01-12T09:34:29.982Z,99.63
2019-01-12T09:36:58.660Z,97.90
2019-01-12T09:39:26.104Z,102.90
2019-01-12T09:41:57.678Z,93.43
2019-01-12T09:44:26.155Z,87.93
2019-01-12T09:46:53.788Z,90.13
2019-01-12T09:49:28.611Z,92.30
2019-01-12T09:51:57.949Z,80.07
2019-01-12T09:54:27.631Z,90.77
2019-01-12T09:56:55.133Z,83.13
2019-01-12T09:59:22.631Z,81.37
2019-01-12T10:01:50.101Z,81.90
2019-01-12T10:04:17.558Z,89.63
2019-01-12T10:06:45.110Z,92.70
2019-01-12T10:09:12.564Z,105.07
2019-01-12T10:11:40.956Z,104.77
2019-01-12T10:14:09.555Z,100.93
2019-01-12T10:16:37.161Z,100.20
2019-01-12T10:19:04.678Z,90.13
2019-01-12T10:21:33.373Z,95.00
2019-01-12T10:24:02.687Z,87.23
2019-01-12T10:26:31.196Z,89.67
2019-01-12T10:29:00.177Z,88.40
2019-01-12T10:31:29.809Z,83.00
2019-01-12T10:33:58.921Z,84.20
2019-01-12T10:36:26.541Z,86.77
2019-01-12T10:38:54.162Z,76.73
2019-01-12T10:41:22.911Z,72.63
2019-01-12T10:43:50.346Z,70.70
2019-01-12T10:46:17.979Z,74.17
2019-01-12T10:48:45.387Z,68.63
2019-01-12T10:51:12.755Z,63.73
2019-01-12T10:53:40.099Z,69.37
2019-01-12T10:56:07.653Z,63.73
2019-01-12T10:58:35.331Z,63.10
2019-01-12T11:01:02.768Z,66.77
2019-01-12T11:03:31.096Z,67.93
2019-01-12T11:05:58.739Z,74.50
2019-01-12T11:08:27.810Z,84.43
2019-01-12T11:10:55.295Z,79.40
2019-01-12T11:13:24.473Z,76.40
2019-01-12T11:15:52.046Z,72.77
2019-01-12T11:18:21.461Z,69.83
2019-01-12T11:20:50.796Z,65.13
2019-01-12T11:23:22.475Z,71.70
2019-01-12T11:25:48.331Z,66.63
2019-01-12T11:28:15.870Z,71.27
2019-01-12T11:30:59.430Z,71.30
2019-01-12T11:33:28.583Z,71.77
2019-01-12T11:35:57.682Z,72.37
2019-01-12T11:38:29.496Z,76.60
2019-01-12T11:40:57.579Z,86.90
2019-01-12T11:43:26.829Z,82.97
2019-01-12T11:45:54.164Z,80.30
2019-01-12T11:48:21.741Z,78.20
2019-01-12T11:50:50.819Z,71.83
2019-01-12T11:53:19.173Z,72.63
2019-01-12T11:55:46.621Z,92.23
2019-01-12T11:58:17.357Z,80.53
2019-01-12T12:00:45.153Z,77.67
2019-01-12T12:03:15.185Z,75.53
2019-01-12T12:05:43.049Z,71.83
2019-01-12T12:08:10.517Z,76.83
2019-01-12T12:10:38.075Z,84.63
2019-01-12T12:13:11.866Z,92.47
2019-01-12T12:15:39.370Z,93.50
2019-01-12T12:18:09.337Z,94.23
2019-01-12T12:20:39.531Z,88.93
2019-01-12T12:23:14.939Z,93.83
2019-01-12T12:25:39.768Z,85.00
2019-01-12T12:28:21.156Z,90.70
2019-01-12T12:30:50.827Z,88.53
2019-01-12T12:33:19.984Z,83.00
2019-01-12T12:35:47.443Z,82.23
2019-01-12T12:38:14.981Z,91.30
2019-01-12T12:40:44.093Z,83.37
2019-01-12T12:43:11.633Z,87.27
2019-01-12T12:45:40.515Z,94.00
2019-01-12T12:48:08.433Z,88.30
2019-01-12T12:50:42.163Z,90.37
2019-01-12T12:53:09.606Z,87.67
2019-01-12T12:55:37.077Z,83.37
2019-01-12T12:58:05.720Z,80.87
2019-01-12T13:00:33.349Z,85.07
2019-01-12T13:03:02.329Z,82.80
2019-01-12T13:05:31.054Z,88.00
2019-01-12T13:07:58.590Z,80.40
2019-01-12T13:10:27.964Z,82.93
2019-01-12T13:12:55.315Z,77.53
2019-01-12T13:15:24.442Z,78.67
2019-01-12T13:17:51.911Z,71.30
2019-01-12T13:20:20.682Z,67.33
2019-01-12T13:22:49.514Z,59.77
2019-01-12T13:25:18.167Z,71.10
2019-01-12T13:27:46.457Z,62.03
2019-01-12T13:30:21.114Z,61.33
2019-01-12T13:32:48.766Z,62.70
2019-01-12T13:35:16.815Z,69.93
2019-01-12T13:37:44.261Z,76.67
2019-01-12T13:40:13.370Z,65.57
2019-01-12T13:42:51.922Z,68.63
2019-01-12T13:45:19.773Z,62.67
2019-01-12T13:47:47.267Z,68.33
2019-01-12T13:50:21.230Z,74.13
2019-01-12T13:52:49.171Z,77.33
2019-01-12T13:55:16.572Z,69.97
2019-01-12T13:57:47.832Z,73.47
2019-01-12T14:00:14.944Z,69.40
2019-01-12T14:02:43.969Z,67.83
2019-01-12T14:05:11.590Z,71.07
2019-01-12T14:07:39.046Z,74.57
2019-01-12T14:10:08.127Z,64.17
2019-01-12T14:12:38.503Z,72.43
2019-01-12T14:15:11.384Z,72.27
2019-01-12T14:17:41.287Z,61.87
2019-01-12T14:20:16.465Z,81.93
2019-01-12T14:22:44.409Z,74.77
2019-01-12T14:25:11.999Z,80.80
2019-01-12T14:27:39.539Z,70.70
2019-01-12T14:30:15.374Z,73.10
2019-01-12T14:32:42.655Z,74.60
2019-01-12T14:35:10.870Z,77.63
2019-01-12T14:37:40.654Z,83.93
2019-01-12T14:40:12.028Z,85.30
2019-01-12T14:42:39.474Z,97.47
2019-01-12T14:45:08.491Z,106.37
2019-01-12T14:47:35.892Z,97.17
2019-01-12T14:50:04.028Z,99.90
2019-01-12T14:52:32.422Z,121.83
2019-01-12T14:54:59.819Z,102.03
2019-01-12T14:57:27.291Z,112.10
2019-01-12T14:59:54.969Z,107.90
2019-01-12T15:02:23.205Z,115.17
2019-01-12T15:04:50.789Z,119.83
2019-01-12T15:07:18.884Z,112.20
2019-01-12T15:09:46.267Z,128.37
2019-01-12T15:12:14.129Z,134.10
2019-01-12T15:14:41.852Z,128.13
2019-01-12T15:17:09.318Z,129.87
2019-01-12T15:19:36.813Z,126.30
2019-01-12T15:22:04.369Z,130.57
2019-01-12T15:24:32.343Z,128.07
2019-01-12T15:26:59.901Z,111.27
2019-01-12T15:29:31.196Z,121.07
2019-01-12T15:31:58.716Z,138.17
2019-01-12T15:34:26.287Z,132.73
2019-01-12T15:36:53.740Z,138.53
2019-01-12T15:39:21.380Z,114.00
2019-01-12T15:41:48.817Z,110.27
2019-01-12T15:44:18.144Z,108.90
2019-01-12T15:46:51.548Z,94.07
2019-01-12T15:49:20.241Z,91.87
2019-01-12T15:51:47.688Z,80.40
2019-01-12T15:54:18.033Z,83.33
2019-01-12T15:56:58.518Z,88.77
2019-01-12T15:59:26.999Z,85.53
2019-01-12T16:01:57.123Z,85.53
2019-01-12T16:04:24.715Z,89.83
2019-01-12T16:06:52.109Z,89.03
2019-01-12T16:09:19.635Z,86.57
2019-01-12T16:11:48.791Z,80.43
2019-01-12T16:14:16.321Z,91.87
2019-01-12T16:16:43.642Z,86.67
2019-01-12T16:19:11.119Z,100.17
2019-01-12T16:21:39.948Z,97.33
2019-01-12T16:24:07.438Z,94.23
2019-01-12T16:26:36.335Z,103.50
2019-01-12T16:29:03.815Z,104.23
2019-01-12T16:31:33.139Z,98.57
2019-01-12T16:34:00.793Z,107.83
2019-01-12T16:36:34.629Z,104.87
2019-01-12T16:39:02.249Z,110.73
2019-01-12T16:41:29.794Z,109.83
2019-01-12T16:43:57.266Z,102.33
2019-01-12T16:46:26.281Z,96.40
2019-01-12T16:48:53.754Z,98.53
2019-01-12T16:51:21.232Z,95.30
2019-01-12T16:53:51.009Z,99.80
2019-01-12T16:56:18.541Z,97.37
2019-01-12T16:58:45.957Z,92.87
2019-01-12T17:01:13.509Z,87.33
2019-01-12T17:03:40.991Z,93.97
2019-01-12T17:06:09.410Z,83.27
2019-01-12T17:08:36.838Z,80.83
2019-01-12T17:11:06.698Z,86.17
2019-01-12T17:13:34.121Z,91.70
2019-01-12T17:16:01.509Z,82.47
2019-01-12T17:18:28.974Z,80.53
2019-01-12T17:20:56.353Z,85.30
2019-01-12T17:23:23.825Z,101.10
2019-01-12T17:25:51.283Z,100.83
2019-01-12T17:28:18.767Z,88.43
2019-01-12T17:31:00.919Z,102.00
2019-01-12T17:33:32.025Z,96.47
2019-01-12T17:35:59.953Z,83.00
2019-01-12T17:38:28.983Z,87.10
2019-01-12T17:40:58.567Z,82.87
2019-01-12T17:43:30.847Z,92.93
2019-01-12T17:46:11.006Z,86.63
2019-01-12T17:48:39.477Z,95.87
2019-01-12T17:51:15.790Z,94.50
2019-01-12T17:53:51.987Z,86.33
2019-01-12T17:56:44.235Z,88.60
2019-01-12T17:59:19.350Z,81.87
2019-01-12T18:01:46.192Z,78.23
2019-01-12T18:07:10.249Z,75.77
2019-01-12T18:09:42.063Z,63.23
2019-01-12T18:12:08.105Z,68.77
2019-01-12T18:14:56.433Z,72.13
2019-01-12T18:17:11.476Z,66.67
2019-01-12T18:19:51.049Z,62.17
2019-01-12T18:22:18.530Z,72.37
2019-01-12T18:24:48.351Z,69.20
2019-01-12T18:27:15.871Z,65.23
2019-01-12T18:29:45.973Z,62.43
2019-01-12T18:32:15.060Z,61.57
2019-01-12T18:34:48.622Z,66.60
2019-01-12T18:37:16.022Z,61.70
2019-01-12T18:39:54.882Z,64.30
2019-01-12T18:42:22.105Z,66.80
2019-01-12T18:44:54.276Z,64.17
2019-01-12T18:47:21.850Z,69.27
2019-01-12T18:50:04.245Z,71.60
2019-01-12T18:52:37.095Z,69.37
2019-01-12T18:55:10.160Z,65.97
2019-01-12T18:58:08.618Z,69.80
2019-01-12T19:00:26.173Z,60.50
2019-01-12T19:02:53.701Z,61.97
2019-01-12T19:05:26.006Z,60.27
2019-01-12T19:07:54.502Z,59.80
2019-01-12T19:10:21.909Z,67.50
2019-01-12T19:13:02.552Z,62.20
2019-01-12T19:15:30.158Z,57.50
2019-01-12T19:17:57.484Z,48.07
2019-01-12T19:20:24.827Z,54.17
2019-01-12T19:23:34.634Z,48.73
2019-01-12T19:25:33.357Z,54.60
2019-01-12T19:28:00.788Z,44.90
2019-01-12T19:30:28.227Z,49.40
2019-01-12T19:33:09.565Z,50.53
2019-01-12T19:35:54.558Z,48.70
2019-01-12T19:38:27.934Z,46.63
2019-01-12T19:40:55.324Z,52.03
2019-01-12T19:43:22.730Z,53.83
2019-01-12T19:45:50.146Z,42.33
2019-01-12T19:48:17.699Z,44.83
2019-01-12T19:50:45.037Z,51.30
2019-01-12T19:53:12.467Z,43.53
2019-01-12T19:55:39.908Z,41.80
2019-01-12T19:58:07.302Z,42.33
2019-01-12T20:00:34.778Z,49.60
2019-01-12T20:03:04.026Z,47.53
2019-01-12T20:05:33.766Z,46.40
2019-01-12T20:08:03.325Z,48.90
2019-01-12T20:10:30.604Z,46.47
2019-01-12T20:12:59.553Z,39.23
2019-01-12T20:15:26.969Z,45.10
2019-01-12T20:17:57.472Z,43.23
2019-01-12T20:20:24.868Z,41.77
2019-01-12T20:22:52.248Z,39.80
2019-01-12T20:25:21.165Z,43.30
2019-01-12T20:27:48.569Z,42.40
2019-01-12T20:30:23.201Z,43.50
2019-01-12T20:33:04.244Z,42.47
2019-01-12T20:35:33.220Z,40.73
2019-01-12T20:38:08.102Z,45.63
2019-01-12T20:40:42.816Z,43.50
2019-01-12T20:43:11.912Z,43.70
2019-01-12T20:45:48.425Z,35.47
2019-01-12T20:48:34.145Z,39.97
2019-01-12T20:51:03.184Z,37.83
2019-01-12T20:53:35.167Z,39.37
2019-01-12T20:56:10.009Z,41.73
2019-01-12T20:58:41.914Z,39.17
2019-01-12T21:01:27.737Z,43.60
2019-01-12T21:03:59.637Z,35.43
2019-01-12T21:06:45.149Z,37.67
2019-01-12T21:09:14.136Z,33.80
2019-01-12T21:11:46.100Z,33.97
2019-01-12T21:14:15.179Z,35.23
2019-01-12T21:16:42.713Z,37.53
2019-01-12T21:19:12.173Z,35.00
2019-01-12T21:21:39.695Z,34.97
2019-01-12T21:24:06.956Z,38.07
2019-01-12T21:26:47.018Z,33.57
2019-01-12T21:29:14.459Z,34.67
2019-01-12T21:31:41.836Z,36.97
2019-01-12T21:34:09.220Z,35.50
2019-01-12T21:36:36.644Z,39.07
2019-01-12T21:39:05.606Z,29.67
2019-01-12T21:41:35.693Z,29.07
2019-01-12T21:44:03.133Z,27.93
2019-01-12T21:46:30.489Z,27.47
2019-01-12T21:48:57.941Z,26.83
2019-01-12T21:51:27.790Z,27.17
2019-01-12T21:53:55.226Z,24.87
2019-01-12T21:56:22.701Z,33.03
2019-01-12T21:58:50.099Z,31.70
2019-01-12T22:01:23.202Z,25.87
2019-01-12T22:03:50.538Z,27.33
2019-01-12T22:06:18.056Z,33.57
2019-01-12T22:08:45.544Z,35.53
2019-01-12T22:11:12.971Z,31.63
2019-01-12T22:13:40.339Z,31.17
2019-01-12T22:16:07.957Z,37.30
2019-01-12T22:18:35.305Z,33.10
2019-01-12T22:21:02.856Z,32.30
2019-01-12T22:23:30.388Z,29.03
2019-01-12T22:25:58.083Z,29.10
2019-01-12T22:28:25.486Z,31.57
2019-01-12T22:30:55.959Z,29.77
2019-01-12T22:33:23.289Z,33.53
2019-01-12T22:35:50.688Z,31.43
2019-01-12T22:38:18.103Z,30.87
2019-01-12T22:40:45.445Z,28.67
2019-01-12T22:43:12.815Z,32.97
2019-01-12T22:45:40.197Z,28.77
2019-01-12T22:48:07.595Z,30.37
2019-01-12T22:50:34.966Z,31.90
2019-01-12T22:53:02.392Z,27.53
2019-01-12T22:55:31.450Z,30.53
2019-01-12T22:57:58.921Z,27.50
2019-01-12T23:00:38.552Z,26.43
2019-01-12T23:03:06.131Z,27.53
2019-01-12T23:05:35.269Z,27.00
2019-01-12T23:08:02.705Z,29.93
2019-01-12T23:10:30.430Z,26.00
2019-01-12T23:12:58.058Z,27.53
2019-01-12T23:15:25.419Z,28.80
2019-01-12T23:17:52.765Z,25.17
2019-01-12T23:20:20.110Z,28.13
2019-01-12T23:22:47.463Z,30.47
2019-01-12T23:25:14.861Z,30.07
2019-01-12T23:27:42.221Z,28.37
2019-01-12T23:30:11.321Z,31.07
2019-01-12T23:32:38.705Z,31.23
2019-01-12T23:35:07.208Z,31.90
2019-01-12T23:37:34.962Z,28.20
2019-01-12T23:40:02.427Z,31.80
2019-01-12T23:42:29.821Z,26.93
2019-01-12T23:44:57.229Z,27.43
2019-01-12T23:47:24.752Z,29.37
2019-01-12T23:49:52.121Z,29.80
2019-01-12T23:52:21.247Z,24.80
2019-01-12T23:54:48.664Z,23.73
2019-01-12T23:57:15.982Z,22.47
2019-01-12T23:59:43.411Z,27.20
